createdAt,value
2022-09-10T00:00:55.372Z,1.33
2022-09-10T00:03:27.657Z,1.30
2022-09-10T00:06:02.878Z,0.85
2022-09-10T00:08:34.950Z,1.27
2022-09-10T00:11:09.564Z,1.13
2022-09-10T00:13:42.297Z,1.20
2022-09-10T00:16:19.155Z,1.30
2022-09-10T00:18:51.666Z,1.45
2022-09-10T00:21:23.794Z,0.93
2022-09-10T00:23:56.438Z,1.42
2022-09-10T00:26:30.503Z,1.00
2022-09-10T00:29:02.737Z,1.10
2022-09-10T00:31:37.009Z,1.20
2022-09-10T00:34:11.402Z,1.60
2022-09-10T00:36:44.038Z,1.40
2022-09-10T00:39:17.552Z,1.27
2022-09-10T00:41:49.726Z,1.35
2022-09-10T00:45:07.411Z,1.27
2022-09-10T00:47:40.814Z,1.40
2022-09-10T00:50:20.561Z,1.27
2022-09-10T00:52:55.402Z,1.77
2022-09-10T00:55:28.983Z,1.50
2022-09-10T00:58:03.132Z,1.48
2022-09-10T01:00:35.200Z,1.45
2022-09-10T01:03:12.079Z,1.40
2022-09-10T01:05:46.205Z,1.30
2022-09-10T01:08:19.821Z,1.58
2022-09-10T01:11:08.554Z,1.35
2022-09-10T01:13:57.059Z,1.30
2022-09-10T01:16:36.794Z,1.67
2022-09-10T01:19:27.007Z,1.50
2022-09-10T01:22:11.995Z,1.90
2022-09-10T01:24:55.853Z,1.50
2022-09-10T01:27:53.794Z,1.05
2022-09-10T01:30:32.075Z,1.63
2022-09-10T01:33:13.959Z,1.73
2022-09-10T01:35:53.655Z,1.10
2022-09-10T01:38:28.764Z,1.15
2022-09-10T01:41:01.490Z,1.23
2022-09-10T01:43:42.024Z,1.60
2022-09-10T01:46:25.338Z,1.30
2022-09-10T01:49:27.650Z,1.08
2022-09-10T01:52:15.214Z,1.10
2022-09-10T01:55:01.069Z,1.27
2022-09-10T01:57:48.744Z,1.52
2022-09-10T02:00:26.444Z,1.20
2022-09-10T02:03:02.803Z,1.40
2022-09-10T02:05:39.508Z,1.15
2022-09-10T02:08:20.885Z,1.17
2022-09-10T02:10:55.961Z,1.10
2022-09-10T02:13:32.011Z,1.10
2022-09-10T02:16:28.745Z,1.15
2022-09-10T02:19:02.835Z,1.17
2022-09-10T02:21:36.194Z,1.50
2022-09-10T02:24:10.554Z,1.20
2022-09-10T02:26:44.609Z,1.52
2022-09-10T02:29:17.909Z,1.42
2022-09-10T02:31:51.500Z,1.58
2022-09-10T02:34:24.664Z,1.75
2022-09-10T02:36:57.627Z,1.73
2022-09-10T02:39:30.230Z,1.13
2022-09-10T02:42:02.778Z,1.63
2022-09-10T02:44:35.202Z,1.48
2022-09-10T02:47:08.463Z,1.52
2022-09-10T02:49:41.184Z,1.27
2022-09-10T02:52:13.565Z,1.70
2022-09-10T02:54:45.762Z,1.88
2022-09-10T02:57:18.014Z,1.30
2022-09-10T02:59:49.983Z,1.30
2022-09-10T03:02:23.856Z,1.30
2022-09-10T03:04:55.844Z,1.10
2022-09-10T03:07:29.814Z,1.65
2022-09-10T03:10:01.918Z,1.40
2022-09-10T03:12:34.071Z,1.65
2022-09-10T03:15:07.374Z,1.50
2022-09-10T03:17:40.776Z,1.33
2022-09-10T03:20:12.980Z,1.80
2022-09-10T03:22:45.046Z,1.30
2022-09-10T03:25:20.400Z,1.20
2022-09-10T03:27:52.862Z,1.30
2022-09-10T03:30:25.722Z,1.88
2022-09-10T03:33:00.140Z,1.52
2022-09-10T03:35:32.271Z,1.88
2022-09-10T03:38:06.099Z,1.98
2022-09-10T03:40:38.087Z,3.00
2022-09-10T03:43:10.178Z,2.72
2022-09-10T03:45:42.487Z,2.40
2022-09-10T03:48:16.751Z,3.03
2022-09-10T03:50:51.067Z,3.03
2022-09-10T03:53:23.901Z,2.50
2022-09-10T03:55:56.402Z,1.80
2022-09-10T03:58:28.724Z,2.40
2022-09-10T04:01:00.900Z,2.60
2022-09-10T04:03:36.218Z,2.63
2022-09-10T04:06:09.675Z,3.72
2022-09-10T04:08:43.424Z,3.15
2022-09-10T04:11:16.711Z,3.10
2022-09-10T04:13:49.175Z,4.10
2022-09-10T04:16:22.284Z,6.25
2022-09-10T04:18:55.976Z,4.10
2022-09-10T04:21:28.049Z,6.63
2022-09-10T04:24:02.065Z,2.55
2022-09-10T04:26:35.054Z,2.22
2022-09-10T04:29:07.170Z,3.75
2022-09-10T04:31:39.285Z,2.85
2022-09-10T04:34:18.457Z,2.80
2022-09-10T04:36:50.615Z,2.53
2022-09-10T04:39:23.551Z,3.78
2022-09-10T04:41:55.703Z,4.72
2022-09-10T04:44:29.555Z,2.88
2022-09-10T04:47:01.966Z,1.90
2022-09-10T04:49:35.365Z,3.28
2022-09-10T04:52:07.524Z,2.53
2022-09-10T04:54:40.024Z,3.30
2022-09-10T04:57:12.483Z,3.63
2022-09-10T04:59:44.719Z,4.07
2022-09-10T05:02:16.813Z,2.67
2022-09-10T05:04:51.099Z,2.95
2022-09-10T05:07:23.262Z,2.22
2022-09-10T05:09:55.779Z,2.10
2022-09-10T05:12:28.166Z,2.13
2022-09-10T05:15:00.169Z,1.83
2022-09-10T05:17:33.401Z,1.90
2022-09-10T05:20:08.206Z,2.17
2022-09-10T05:22:45.716Z,2.15
2022-09-10T05:25:18.460Z,2.40
2022-09-10T05:27:51.335Z,1.45
2022-09-10T05:30:25.742Z,1.50
2022-09-10T05:32:59.536Z,1.63
2022-09-10T05:35:34.760Z,2.08
2022-09-10T05:38:08.326Z,1.65
2022-09-10T05:40:43.180Z,2.05
2022-09-10T05:43:15.441Z,1.88
2022-09-10T05:45:49.527Z,1.50
2022-09-10T05:48:21.596Z,2.20
2022-09-10T05:50:55.699Z,2.00
2022-09-10T05:53:27.688Z,2.35
2022-09-10T05:55:59.752Z,1.95
2022-09-10T05:58:34.548Z,1.65
2022-09-10T06:01:06.685Z,1.60
2022-09-10T06:03:39.250Z,1.83
2022-09-10T06:06:12.883Z,1.55
2022-09-10T06:08:51.504Z,1.63
2022-09-10T06:11:31.213Z,1.70
2022-09-10T06:14:03.758Z,1.95
2022-09-10T06:16:35.809Z,1.52
2022-09-10T06:19:08.472Z,1.58
2022-09-10T06:21:43.085Z,1.50
2022-09-10T06:24:15.409Z,1.58
2022-09-10T06:26:48.983Z,1.20
2022-09-10T06:29:22.649Z,1.40
2022-09-10T06:31:54.900Z,1.67
2022-09-10T06:34:26.868Z,1.40
2022-09-10T06:37:02.595Z,1.50
2022-09-10T06:39:36.268Z,1.58
2022-09-10T06:42:08.407Z,1.20
2022-09-10T06:45:00.175Z,1.48
2022-09-10T06:48:37.665Z,0.93
2022-09-10T06:50:59.408Z,1.35
2022-09-10T06:53:40.122Z,1.50
2022-09-10T06:56:15.357Z,1.40
2022-09-10T06:58:48.708Z,1.40
2022-09-10T07:01:24.001Z,1.35
2022-09-10T07:04:00.544Z,1.33
2022-09-10T07:06:36.352Z,1.30
2022-09-10T07:09:14.330Z,1.40
2022-09-10T07:12:06.333Z,1.70
2022-09-10T07:14:41.579Z,2.10
2022-09-10T07:17:15.904Z,1.60
2022-09-10T07:19:48.815Z,1.38
2022-09-10T07:25:01.781Z,1.60
2022-09-10T07:27:36.365Z,1.60
2022-09-10T07:30:09.496Z,1.17
2022-09-10T07:32:41.553Z,1.30
2022-09-10T07:35:19.344Z,1.55
2022-09-10T07:37:51.512Z,1.40
2022-09-10T07:40:27.840Z,1.70
2022-09-10T07:43:00.294Z,1.60
2022-09-10T07:45:33.520Z,1.60
2022-09-10T07:48:08.064Z,1.60
2022-09-10T07:50:43.436Z,1.90
2022-09-10T07:53:16.384Z,1.63
2022-09-10T07:56:01.075Z,1.40
2022-09-10T07:58:36.158Z,1.30
2022-09-10T08:01:12.958Z,1.52
2022-09-10T08:03:45.527Z,1.40
2022-09-10T08:06:19.490Z,1.55
2022-09-10T08:08:53.617Z,1.70
2022-09-10T08:11:27.084Z,1.95
2022-09-10T08:14:01.355Z,1.85
2022-09-10T08:16:36.308Z,1.25
2022-09-10T08:19:16.012Z,1.50
2022-09-10T08:21:48.128Z,1.67
2022-09-10T08:24:27.756Z,1.40
2022-09-10T08:27:01.151Z,1.63
2022-09-10T08:29:34.876Z,1.30
2022-09-10T08:32:07.714Z,1.38
2022-09-10T08:34:39.843Z,1.13
2022-09-10T08:37:14.583Z,1.33
2022-09-10T08:39:46.646Z,1.27
2022-09-10T08:42:27.625Z,1.17
2022-09-10T08:45:05.069Z,1.30
2022-09-10T08:47:49.322Z,1.10
2022-09-10T08:50:28.485Z,1.40
2022-09-10T08:53:22.969Z,1.42
2022-09-10T08:55:57.997Z,1.15
2022-09-10T08:58:40.808Z,1.50
2022-09-10T09:01:21.483Z,1.42
2022-09-10T09:03:57.355Z,1.50
2022-09-10T09:06:39.424Z,1.33
2022-09-10T09:09:15.671Z,1.55
2022-09-10T09:11:58.366Z,1.35
2022-09-10T09:14:45.271Z,1.52
2022-09-10T09:17:37.306Z,1.20
2022-09-10T09:20:15.711Z,0.95
2022-09-10T09:22:53.337Z,1.10
2022-09-10T09:25:34.431Z,1.45
2022-09-10T09:28:23.242Z,1.25
2022-09-10T09:30:59.382Z,0.93
2022-09-10T09:33:33.819Z,1.38
2022-09-10T09:36:07.524Z,1.55
2022-09-10T09:38:44.047Z,1.42
2022-09-10T09:41:25.935Z,1.30
2022-09-10T09:44:04.267Z,1.50
2022-09-10T09:46:39.457Z,1.33
2022-09-10T09:49:16.647Z,1.02
2022-09-10T09:51:51.862Z,1.60
2022-09-10T09:55:03.327Z,1.42
2022-09-10T09:57:20.665Z,1.42
2022-09-10T09:59:52.711Z,1.40
2022-09-10T10:02:29.159Z,1.65
2022-09-10T10:05:07.193Z,1.25
2022-09-10T10:07:39.323Z,1.30
2022-09-10T10:10:23.916Z,1.27
2022-09-10T10:12:56.203Z,1.63
2022-09-10T10:15:36.797Z,1.40
2022-09-10T10:18:31.917Z,1.35
2022-09-10T10:21:16.080Z,1.38
2022-09-10T10:23:49.294Z,1.55
2022-09-10T10:26:30.527Z,1.35
2022-09-10T10:29:06.690Z,1.48
2022-09-10T10:31:41.868Z,1.40
2022-09-10T10:34:38.761Z,1.48
2022-09-10T10:37:33.292Z,1.45
2022-09-10T10:40:19.044Z,1.35
2022-09-10T10:42:59.905Z,1.17
2022-09-10T10:45:42.877Z,1.80
2022-09-10T10:48:28.496Z,1.48
2022-09-10T10:51:11.636Z,1.58
2022-09-10T10:53:59.898Z,1.27
2022-09-10T10:56:37.302Z,1.25
2022-09-10T10:59:29.898Z,1.45
2022-09-10T11:02:14.300Z,1.40
2022-09-10T11:04:50.376Z,1.52
2022-09-10T11:07:31.217Z,1.38
2022-09-10T11:10:12.762Z,1.95
2022-09-10T11:12:49.752Z,1.60
2022-09-10T11:15:30.355Z,1.15
2022-09-10T11:18:10.430Z,1.13
2022-09-10T11:20:46.603Z,1.70
2022-09-10T11:23:29.655Z,1.38
2022-09-10T11:26:06.002Z,1.08
2022-09-10T11:28:43.617Z,1.70
2022-09-10T11:31:25.289Z,1.20
2022-09-10T11:34:03.425Z,1.05
2022-09-10T11:36:45.381Z,1.00
2022-09-10T11:39:24.030Z,1.30
2022-09-10T11:42:00.231Z,1.48
2022-09-10T11:44:42.717Z,1.33
2022-09-10T11:47:20.517Z,1.83
2022-09-10T11:49:58.332Z,1.20
2022-09-10T11:52:33.673Z,1.20
2022-09-10T11:55:13.958Z,1.30
2022-09-10T12:00:34.948Z,1.10
2022-09-10T12:03:51.822Z,1.20
2022-09-10T12:06:30.363Z,1.30
2022-09-10T12:09:12.393Z,1.30
2022-09-10T12:11:53.752Z,1.85
2022-09-10T12:14:26.022Z,1.23
2022-09-10T12:17:03.368Z,1.33
2022-09-10T12:19:41.503Z,1.20
2022-09-10T12:22:20.836Z,1.20
2022-09-10T12:24:55.061Z,0.75
2022-09-10T12:27:47.250Z,1.15
2022-09-10T12:30:58.984Z,1.10
2022-09-10T12:34:08.235Z,1.33
2022-09-10T12:37:15.878Z,1.17
2022-09-10T12:39:49.569Z,1.20
2022-09-10T12:42:33.441Z,1.10
2022-09-10T12:45:08.868Z,1.35
2022-09-10T12:47:47.561Z,1.63
2022-09-10T12:50:40.318Z,1.10
2022-09-10T12:53:40.795Z,1.20
2022-09-10T12:56:47.715Z,1.33
2022-09-10T12:59:45.233Z,1.40
2022-09-10T13:02:27.141Z,1.00
2022-09-10T13:05:03.233Z,1.10
2022-09-10T13:07:40.319Z,1.20
2022-09-10T13:10:22.066Z,1.05
2022-09-10T13:12:56.769Z,1.08
2022-09-10T13:15:35.447Z,0.90
2022-09-10T13:18:26.724Z,1.10
2022-09-10T13:20:59.243Z,0.90
2022-09-10T13:23:56.084Z,1.40
2022-09-10T13:26:48.439Z,1.70
2022-09-10T13:29:34.304Z,1.60
2022-09-10T13:32:11.356Z,1.20
2022-09-10T13:35:17.180Z,1.10
2022-09-10T13:38:28.055Z,1.00
2022-09-10T13:41:31.838Z,1.50
2022-09-10T13:44:17.963Z,1.60
2022-09-10T13:46:53.658Z,1.83
2022-09-10T13:49:35.207Z,1.75
2022-09-10T13:52:12.470Z,1.73
2022-09-10T13:54:51.431Z,1.17
2022-09-10T13:57:28.214Z,1.33
2022-09-10T14:00:05.097Z,1.50
2022-09-10T14:02:41.673Z,1.42
2022-09-10T14:05:33.902Z,0.80
2022-09-10T14:08:13.296Z,0.98
2022-09-10T14:10:51.960Z,1.05
2022-09-10T14:13:30.324Z,1.10
2022-09-10T14:16:05.217Z,1.15
2022-09-10T14:18:45.032Z,1.08
2022-09-10T14:21:19.608Z,1.48
2022-09-10T14:23:55.281Z,0.93
2022-09-10T14:26:28.969Z,1.60
2022-09-10T14:29:03.515Z,1.30
2022-09-10T14:31:37.238Z,1.50
2022-09-10T14:34:30.122Z,1.15
2022-09-10T14:37:40.138Z,0.90
2022-09-10T14:40:19.743Z,1.10
2022-09-10T14:42:51.809Z,1.95
2022-09-10T14:45:41.747Z,1.40
2022-09-10T14:48:38.866Z,1.20
2022-09-10T14:51:17.603Z,1.20
2022-09-10T14:53:52.119Z,1.65
2022-09-10T14:56:28.988Z,1.27
2022-09-10T14:59:03.702Z,1.45
2022-09-10T15:01:35.920Z,1.25
2022-09-10T15:04:12.944Z,1.15
2022-09-10T15:06:45.203Z,1.30
2022-09-10T15:09:17.531Z,1.30
2022-09-10T15:11:54.984Z,1.00
2022-09-10T15:14:27.132Z,1.50
2022-09-10T15:16:59.501Z,1.08
2022-09-10T15:19:32.045Z,1.58
2022-09-10T15:22:04.168Z,1.30
2022-09-10T15:24:58.782Z,1.25
2022-09-10T15:27:29.668Z,1.60
2022-09-10T15:30:01.739Z,1.70
2022-09-10T15:32:33.780Z,1.30
2022-09-10T15:35:07.958Z,1.20
2022-09-10T15:37:40.587Z,1.52
2022-09-10T15:40:15.609Z,1.65
2022-09-10T15:42:49.453Z,3.20
2022-09-10T15:45:21.500Z,3.55
2022-09-10T15:47:54.893Z,3.92
2022-09-10T15:50:26.932Z,2.38
2022-09-10T15:52:58.968Z,2.28
2022-09-10T15:55:31.621Z,2.70
2022-09-10T15:58:05.300Z,2.10
2022-09-10T16:00:37.447Z,3.40
2022-09-10T16:03:09.518Z,2.28
2022-09-10T16:05:41.690Z,2.60
2022-09-10T16:08:13.788Z,2.28
2022-09-10T16:10:45.864Z,2.80
2022-09-10T16:13:19.981Z,2.95
2022-09-10T16:15:59.526Z,2.50
2022-09-10T16:18:32.767Z,2.80
2022-09-10T16:21:11.364Z,3.00
2022-09-10T16:23:44.102Z,5.45
2022-09-10T16:26:19.985Z,3.30
2022-09-10T16:28:54.829Z,2.65
2022-09-10T16:31:28.854Z,2.63
2022-09-10T16:34:03.341Z,3.10
2022-09-10T16:36:37.395Z,3.08
2022-09-10T16:39:12.561Z,2.67
2022-09-10T16:41:46.764Z,2.90
2022-09-10T16:44:20.135Z,1.60
2022-09-10T16:46:52.685Z,1.55
2022-09-10T16:49:24.697Z,2.15
2022-09-10T16:51:56.726Z,1.90
2022-09-10T16:54:31.993Z,1.92
2022-09-10T16:57:05.048Z,2.55
2022-09-10T16:59:38.518Z,2.05
2022-09-10T17:02:10.459Z,2.60
2022-09-10T17:04:42.497Z,2.40
2022-09-10T17:07:14.553Z,2.42
2022-09-10T17:09:46.517Z,2.00
2022-09-10T17:12:18.676Z,2.20
2022-09-10T17:14:52.037Z,2.33
2022-09-10T17:17:24.447Z,2.40
2022-09-10T17:19:56.696Z,2.40
2022-09-10T17:22:28.673Z,2.20
2022-09-10T17:25:00.633Z,2.25
2022-09-10T17:27:33.298Z,2.85
2022-09-10T17:30:08.173Z,2.50
2022-09-10T17:32:40.358Z,3.10
2022-09-10T17:35:12.784Z,2.83
2022-09-10T17:37:44.947Z,3.45
2022-09-10T17:40:17.075Z,5.93
2022-09-10T17:42:49.318Z,5.68
2022-09-10T17:45:22.808Z,4.97
2022-09-10T17:47:54.841Z,17.60
2022-09-10T17:50:29.210Z,15.77
2022-09-10T17:53:02.185Z,13.90
2022-09-10T17:55:34.525Z,16.88
2022-09-10T17:58:06.505Z,15.85
2022-09-10T18:00:40.734Z,24.08
2022-09-10T18:03:14.456Z,24.05
2022-09-10T18:05:46.403Z,21.83
2022-09-10T18:08:19.249Z,21.25
2022-09-10T18:11:00.764Z,20.95
2022-09-10T18:13:34.298Z,19.95
2022-09-10T18:16:10.116Z,20.75
2022-09-10T18:18:44.167Z,22.75
2022-09-10T18:21:19.439Z,21.95
2022-09-10T18:23:53.039Z,15.80
2022-09-10T18:26:27.232Z,30.60
2022-09-10T18:29:02.036Z,22.98
2022-09-10T18:31:39.147Z,15.18
2022-09-10T18:34:13.975Z,19.33
2022-09-10T18:36:46.047Z,18.42
2022-09-10T18:39:17.944Z,19.15
2022-09-10T18:41:50.236Z,18.98
2022-09-10T18:44:24.514Z,14.35
2022-09-10T18:46:58.024Z,21.13
2022-09-10T18:49:30.023Z,19.13
2022-09-10T18:52:02.692Z,17.35
2022-09-10T18:54:36.934Z,17.73
2022-09-10T18:57:08.964Z,12.23
2022-09-10T18:59:41.014Z,12.45
2022-09-10T19:02:15.548Z,9.35
2022-09-10T19:05:09.874Z,7.00
2022-09-10T19:07:39.578Z,4.95
2022-09-10T19:10:11.575Z,9.10
2022-09-10T19:12:43.826Z,4.18
2022-09-10T19:15:15.838Z,4.97
2022-09-10T19:17:49.189Z,4.30
2022-09-10T19:20:21.212Z,5.57
2022-09-10T19:22:53.686Z,3.92
2022-09-10T19:25:25.617Z,2.80
2022-09-10T19:27:57.687Z,3.25
2022-09-10T19:30:35.626Z,3.35
2022-09-10T19:33:09.800Z,3.22
2022-09-10T19:35:43.004Z,2.80
2022-09-10T19:38:36.244Z,3.25
2022-09-10T19:41:09.532Z,2.67
2022-09-10T19:43:41.772Z,2.60
2022-09-10T19:46:14.957Z,2.42
2022-09-10T19:48:48.734Z,2.58
2022-09-10T19:51:21.389Z,2.60
2022-09-10T19:53:53.438Z,2.65
2022-09-10T19:56:27.670Z,2.53
2022-09-10T19:59:00.332Z,2.70
2022-09-10T20:01:33.383Z,2.80
2022-09-10T20:04:08.850Z,3.13
2022-09-10T20:06:42.700Z,2.50
2022-09-10T20:09:14.738Z,3.03
2022-09-10T20:11:46.716Z,2.70
2022-09-10T20:14:20.243Z,3.00
2022-09-10T20:16:52.456Z,3.05
2022-09-10T20:19:26.120Z,2.75
2022-09-10T20:21:58.040Z,2.83
2022-09-10T20:24:30.106Z,2.67
2022-09-10T20:27:02.039Z,2.58
2022-09-10T20:29:34.217Z,3.17
2022-09-10T20:32:07.037Z,2.60
2022-09-10T20:34:40.373Z,3.03
2022-09-10T20:37:12.419Z,3.50
2022-09-10T20:39:46.575Z,2.60
2022-09-10T20:42:18.622Z,2.90
2022-09-10T20:44:50.642Z,3.15
2022-09-10T20:47:24.278Z,2.90
2022-09-10T20:49:57.589Z,3.03
2022-09-10T20:52:29.495Z,2.63
2022-09-10T20:55:01.827Z,2.55
2022-09-10T20:57:33.805Z,2.63
2022-09-10T21:00:07.712Z,2.58
2022-09-10T21:02:39.687Z,2.80
2022-09-10T21:05:13.926Z,2.33
2022-09-10T21:07:47.642Z,2.35
2022-09-10T21:10:19.563Z,2.20
2022-09-10T21:12:51.496Z,2.20
2022-09-10T21:15:23.772Z,2.67
2022-09-10T21:17:55.922Z,1.90
2022-09-10T21:20:29.263Z,2.40
2022-09-10T21:23:01.250Z,2.30
2022-09-10T21:25:33.801Z,2.30
2022-09-10T21:28:05.759Z,2.05
2022-09-10T21:30:37.688Z,2.38
2022-09-10T21:33:09.605Z,2.38
2022-09-10T21:35:42.913Z,2.20
2022-09-10T21:38:15.233Z,2.70
2022-09-10T21:40:55.057Z,2.58
2022-09-10T21:43:27.416Z,2.50
2022-09-10T21:46:00.690Z,2.08
2022-09-10T21:48:35.925Z,2.30
2022-09-10T21:51:13.223Z,2.42
2022-09-10T21:53:46.331Z,2.40
2022-09-10T21:56:18.337Z,2.00
2022-09-10T21:58:50.544Z,2.63
2022-09-10T22:01:24.375Z,2.50
2022-09-10T22:03:57.653Z,2.30
2022-09-10T22:06:32.544Z,2.13
2022-09-10T22:09:07.075Z,2.42
2022-09-10T22:11:41.868Z,2.80
2022-09-10T22:14:15.362Z,2.80
2022-09-10T22:16:47.827Z,2.78
2022-09-10T22:19:22.402Z,2.63
2022-09-10T22:21:56.906Z,2.45
2022-09-10T22:24:29.525Z,2.80
2022-09-10T22:27:02.047Z,2.55
2022-09-10T22:29:34.013Z,2.58
2022-09-10T22:32:06.324Z,3.28
2022-09-10T22:34:39.089Z,2.28
2022-09-10T22:37:12.413Z,2.85
2022-09-10T22:39:44.436Z,2.08
2022-09-10T22:42:16.412Z,2.75
2022-09-10T22:44:48.939Z,2.15
2022-09-10T22:47:20.860Z,1.92
2022-09-10T22:49:52.997Z,1.85
2022-09-10T22:52:27.724Z,1.90
2022-09-10T22:54:59.797Z,2.08
2022-09-10T22:57:31.882Z,1.95
2022-09-10T23:00:04.427Z,2.38
2022-09-10T23:02:36.386Z,2.20
2022-09-10T23:05:08.701Z,2.10
2022-09-10T23:07:42.041Z,2.13
2022-09-10T23:10:14.054Z,2.17
2022-09-10T23:12:46.002Z,2.17
2022-09-10T23:15:17.960Z,2.20
2022-09-10T23:17:49.935Z,1.38
2022-09-10T23:20:21.864Z,2.03
2022-09-10T23:22:55.211Z,1.63
2022-09-10T23:25:27.166Z,2.00
2022-09-10T23:27:59.100Z,2.35
2022-09-10T23:30:31.045Z,2.38
2022-09-10T23:33:02.993Z,2.20
2022-09-10T23:35:34.942Z,2.05
2022-09-10T23:38:08.291Z,2.15
2022-09-10T23:40:40.264Z,2.10
2022-09-10T23:43:12.838Z,1.83
2022-09-10T23:45:45.506Z,1.83
2022-09-10T23:48:17.438Z,1.75
2022-09-10T23:50:50.562Z,2.03
2022-09-10T23:53:25.357Z,1.70
2022-09-10T23:55:57.666Z,2.00
2022-09-10T23:58:30.123Z,2.30
